sensor_id;sensor_type;location;lat;lon;timestamp;P1;durP1;ratioP1;P2;durP2;ratioP2
49730;SDS011;35622;52.008;5.426;2023-07-13T00:02:11;8.93;;;2.08;;
49730;SDS011;35622;52.008;5.426;2023-07-13T00:04:37;9.02;;;2.03;;
49730;SDS011;35622;52.008;5.426;2023-07-13T00:07:02;9.07;;;1.90;;
49730;SDS011;35622;52.008;5.426;2023-07-13T00:09:28;7.00;;;2.40;;
49730;SDS011;35622;52.008;5.426;2023-07-13T00:11:55;7.65;;;2.20;;
49730;SDS011;35622;52.008;5.426;2023-07-13T00:14:23;5.75;;;2.10;;
49730;SDS011;35622;52.008;5.426;2023-07-13T00:16:50;5.70;;;2.10;;
49730;SDS011;35622;52.008;5.426;2023-07-13T00:19:16;9.40;;;2.30;;
49730;SDS011;35622;52.008;5.426;2023-07-13T00:21:41;9.55;;;2.83;;
49730;SDS011;35622;52.008;5.426;2023-07-13T00:24:08;7.53;;;2.00;;
49730;SDS011;35622;52.008;5.426;2023-07-13T00:26:39;7.57;;;2.00;;
49730;SDS011;35622;52.008;5.426;2023-07-13T00:29:05;9.07;;;2.30;;
49730;SDS011;35622;52.008;5.426;2023-07-13T00:31:34;6.50;;;2.40;;
49730;SDS011;35622;52.008;5.426;2023-07-13T00:34:00;10.10;;;2.00;;
49730;SDS011;35622;52.008;5.426;2023-07-13T00:36:26;4.43;;;1.80;;
49730;SDS011;35622;52.008;5.426;2023-07-13T00:38:52;5.65;;;1.90;;
49730;SDS011;35622;52.008;5.426;2023-07-13T00:41:18;6.78;;;2.10;;
49730;SDS011;35622;52.008;5.426;2023-07-13T00:43:44;5.47;;;2.25;;
49730;SDS011;35622;52.008;5.426;2023-07-13T00:46:18;6.47;;;1.95;;
49730;SDS011;35622;52.008;5.426;2023-07-13T00:48:49;6.18;;;1.90;;
49730;SDS011;35622;52.008;5.426;2023-07-13T00:51:17;8.68;;;2.10;;
49730;SDS011;35622;52.008;5.426;2023-07-13T00:53:47;11.32;;;2.47;;
49730;SDS011;35622;52.008;5.426;2023-07-13T00:56:14;7.10;;;2.20;;
49730;SDS011;35622;52.008;5.426;2023-07-13T00:58:40;7.93;;;1.85;;
49730;SDS011;35622;52.008;5.426;2023-07-13T01:01:05;3.63;;;1.80;;
49730;SDS011;35622;52.008;5.426;2023-07-13T01:03:31;8.20;;;2.22;;
49730;SDS011;35622;52.008;5.426;2023-07-13T01:05:57;5.53;;;1.80;;
49730;SDS011;35622;52.008;5.426;2023-07-13T01:08:23;6.47;;;1.60;;
49730;SDS011;35622;52.008;5.426;2023-07-13T01:10:56;6.65;;;2.03;;
49730;SDS011;35622;52.008;5.426;2023-07-13T01:13:23;8.38;;;2.10;;
49730;SDS011;35622;52.008;5.426;2023-07-13T01:15:49;4.82;;;1.83;;
49730;SDS011;35622;52.008;5.426;2023-07-13T01:18:21;10.75;;;2.15;;
49730;SDS011;35622;52.008;5.426;2023-07-13T01:21:01;6.00;;;2.20;;
49730;SDS011;35622;52.008;5.426;2023-07-13T01:23:29;7.10;;;1.95;;
49730;SDS011;35622;52.008;5.426;2023-07-13T01:25:56;5.25;;;1.90;;
49730;SDS011;35622;52.008;5.426;2023-07-13T01:28:23;5.88;;;1.98;;
49730;SDS011;35622;52.008;5.426;2023-07-13T01:30:52;9.82;;;2.15;;
49730;SDS011;35622;52.008;5.426;2023-07-13T01:33:19;7.95;;;2.80;;
49730;SDS011;35622;52.008;5.426;2023-07-13T01:35:45;7.28;;;1.80;;
49730;SDS011;35622;52.008;5.426;2023-07-13T01:38:12;5.75;;;1.70;;
49730;SDS011;35622;52.008;5.426;2023-07-13T01:40:40;8.13;;;2.10;;
49730;SDS011;35622;52.008;5.426;2023-07-13T01:43:06;9.65;;;2.00;;
49730;SDS011;35622;52.008;5.426;2023-07-13T01:45:32;5.07;;;1.75;;
49730;SDS011;35622;52.008;5.426;2023-07-13T01:47:57;7.18;;;2.28;;
49730;SDS011;35622;52.008;5.426;2023-07-13T01:50:23;7.15;;;2.30;;
49730;SDS011;35622;52.008;5.426;2023-07-13T01:52:50;7.07;;;2.05;;
49730;SDS011;35622;52.008;5.426;2023-07-13T01:55:15;8.43;;;2.38;;
49730;SDS011;35622;52.008;5.426;2023-07-13T01:57:41;7.43;;;2.20;;
49730;SDS011;35622;52.008;5.426;2023-07-13T02:00:08;7.97;;;2.17;;
49730;SDS011;35622;52.008;5.426;2023-07-13T02:02:35;5.20;;;2.33;;
49730;SDS011;35622;52.008;5.426;2023-07-13T02:05:00;6.68;;;1.95;;
49730;SDS011;35622;52.008;5.426;2023-07-13T02:07:26;6.05;;;2.17;;
49730;SDS011;35622;52.008;5.426;2023-07-13T02:09:52;6.50;;;1.75;;
49730;SDS011;35622;52.008;5.426;2023-07-13T02:12:18;6.10;;;2.30;;
49730;SDS011;35622;52.008;5.426;2023-07-13T02:14:44;7.78;;;1.90;;
49730;SDS011;35622;52.008;5.426;2023-07-13T02:17:10;6.68;;;1.70;;
49730;SDS011;35622;52.008;5.426;2023-07-13T02:19:36;5.68;;;2.05;;
49730;SDS011;35622;52.008;5.426;2023-07-13T02:22:02;4.72;;;1.95;;
49730;SDS011;35622;52.008;5.426;2023-07-13T02:24:28;5.82;;;2.25;;
49730;SDS011;35622;52.008;5.426;2023-07-13T02:26:53;8.48;;;2.28;;
49730;SDS011;35622;52.008;5.426;2023-07-13T02:29:19;11.35;;;2.30;;
49730;SDS011;35622;52.008;5.426;2023-07-13T02:31:44;7.75;;;2.05;;
49730;SDS011;35622;52.008;5.426;2023-07-13T02:34:10;7.68;;;1.98;;
49730;SDS011;35622;52.008;5.426;2023-07-13T02:36:36;5.65;;;2.22;;
49730;SDS011;35622;52.008;5.426;2023-07-13T02:39:03;7.95;;;2.35;;
49730;SDS011;35622;52.008;5.426;2023-07-13T02:41:30;10.13;;;2.67;;
49730;SDS011;35622;52.008;5.426;2023-07-13T02:43:57;8.75;;;2.58;;
49730;SDS011;35622;52.008;5.426;2023-07-13T02:46:30;6.88;;;2.45;;
49730;SDS011;35622;52.008;5.426;2023-07-13T02:48:56;7.28;;;2.50;;
49730;SDS011;35622;52.008;5.426;2023-07-13T02:51:22;7.10;;;2.30;;
49730;SDS011;35622;52.008;5.426;2023-07-13T02:53:47;8.88;;;2.65;;
49730;SDS011;35622;52.008;5.426;2023-07-13T02:56:13;5.47;;;2.22;;
49730;SDS011;35622;52.008;5.426;2023-07-13T02:58:38;7.40;;;2.42;;
49730;SDS011;35622;52.008;5.426;2023-07-13T03:01:08;7.28;;;2.70;;
49730;SDS011;35622;52.008;5.426;2023-07-13T03:03:35;7.00;;;3.08;;
49730;SDS011;35622;52.008;5.426;2023-07-13T03:06:01;7.47;;;2.70;;
49730;SDS011;35622;52.008;5.426;2023-07-13T03:08:28;13.35;;;3.72;;
49730;SDS011;35622;52.008;5.426;2023-07-13T03:10:58;7.43;;;2.42;;
49730;SDS011;35622;52.008;5.426;2023-07-13T03:13:25;9.35;;;2.88;;
49730;SDS011;35622;52.008;5.426;2023-07-13T03:15:51;7.25;;;2.47;;
49730;SDS011;35622;52.008;5.426;2023-07-13T03:18:17;10.02;;;3.20;;
49730;SDS011;35622;52.008;5.426;2023-07-13T03:20:42;7.40;;;2.80;;
49730;SDS011;35622;52.008;5.426;2023-07-13T03:23:08;8.57;;;3.38;;
49730;SDS011;35622;52.008;5.426;2023-07-13T03:25:34;8.45;;;3.00;;
49730;SDS011;35622;52.008;5.426;2023-07-13T03:28:00;15.02;;;3.50;;
49730;SDS011;35622;52.008;5.426;2023-07-13T03:30:25;11.13;;;3.25;;
49730;SDS011;35622;52.008;5.426;2023-07-13T03:32:51;7.57;;;2.90;;
49730;SDS011;35622;52.008;5.426;2023-07-13T03:35:17;9.50;;;3.05;;
49730;SDS011;35622;52.008;5.426;2023-07-13T03:37:42;9.85;;;3.10;;
49730;SDS011;35622;52.008;5.426;2023-07-13T03:40:08;11.90;;;3.38;;
49730;SDS011;35622;52.008;5.426;2023-07-13T03:42:35;8.07;;;3.17;;
49730;SDS011;35622;52.008;5.426;2023-07-13T03:45:01;10.45;;;3.05;;
49730;SDS011;35622;52.008;5.426;2023-07-13T03:47:26;6.93;;;3.40;;
49730;SDS011;35622;52.008;5.426;2023-07-13T03:49:52;9.95;;;3.10;;
49730;SDS011;35622;52.008;5.426;2023-07-13T03:52:18;9.30;;;3.10;;
49730;SDS011;35622;52.008;5.426;2023-07-13T03:54:44;15.73;;;3.70;;
49730;SDS011;35622;52.008;5.426;2023-07-13T03:57:09;11.75;;;3.45;;
49730;SDS011;35622;52.008;5.426;2023-07-13T03:59:35;8.23;;;3.22;;
49730;SDS011;35622;52.008;5.426;2023-07-13T04:02:01;9.05;;;3.10;;
49730;SDS011;35622;52.008;5.426;2023-07-13T04:04:29;8.45;;;3.00;;
49730;SDS011;35622;52.008;5.426;2023-07-13T04:06:55;8.38;;;3.25;;
49730;SDS011;35622;52.008;5.426;2023-07-13T04:09:23;7.38;;;3.28;;
49730;SDS011;35622;52.008;5.426;2023-07-13T04:11:49;9.15;;;3.13;;
49730;SDS011;35622;52.008;5.426;2023-07-13T04:14:15;10.45;;;3.03;;
49730;SDS011;35622;52.008;5.426;2023-07-13T04:16:41;8.43;;;3.38;;
49730;SDS011;35622;52.008;5.426;2023-07-13T04:19:08;7.45;;;3.15;;
49730;SDS011;35622;52.008;5.426;2023-07-13T04:21:35;9.90;;;3.15;;
49730;SDS011;35622;52.008;5.426;2023-07-13T04:24:02;12.63;;;3.88;;
49730;SDS011;35622;52.008;5.426;2023-07-13T04:26:29;11.63;;;3.50;;
49730;SDS011;35622;52.008;5.426;2023-07-13T04:28:55;11.43;;;3.33;;
49730;SDS011;35622;52.008;5.426;2023-07-13T04:31:21;8.75;;;3.28;;
49730;SDS011;35622;52.008;5.426;2023-07-13T04:33:47;9.63;;;3.85;;
49730;SDS011;35622;52.008;5.426;2023-07-13T04:36:13;9.10;;;3.63;;
49730;SDS011;35622;52.008;5.426;2023-07-13T04:38:40;12.23;;;3.47;;
49730;SDS011;35622;52.008;5.426;2023-07-13T04:41:06;8.95;;;3.10;;
49730;SDS011;35622;52.008;5.426;2023-07-13T04:43:33;11.98;;;3.70;;
49730;SDS011;35622;52.008;5.426;2023-07-13T04:46:03;10.73;;;3.47;;
49730;SDS011;35622;52.008;5.426;2023-07-13T04:48:30;8.80;;;3.38;;
49730;SDS011;35622;52.008;5.426;2023-07-13T04:50:56;10.23;;;3.60;;
49730;SDS011;35622;52.008;5.426;2023-07-13T04:53:23;12.38;;;4.55;;
49730;SDS011;35622;52.008;5.426;2023-07-13T04:55:50;11.50;;;4.10;;
49730;SDS011;35622;52.008;5.426;2023-07-13T04:58:16;14.65;;;5.78;;
49730;SDS011;35622;52.008;5.426;2023-07-13T05:00:42;12.35;;;4.43;;
49730;SDS011;35622;52.008;5.426;2023-07-13T05:03:08;15.70;;;4.45;;
49730;SDS011;35622;52.008;5.426;2023-07-13T05:05:33;15.70;;;4.95;;
49730;SDS011;35622;52.008;5.426;2023-07-13T05:07:59;14.50;;;4.32;;
49730;SDS011;35622;52.008;5.426;2023-07-13T05:10:25;10.73;;;4.10;;
49730;SDS011;35622;52.008;5.426;2023-07-13T05:12:51;15.35;;;4.35;;
49730;SDS011;35622;52.008;5.426;2023-07-13T05:15:16;7.95;;;3.80;;
49730;SDS011;35622;52.008;5.426;2023-07-13T05:17:46;12.93;;;3.58;;
49730;SDS011;35622;52.008;5.426;2023-07-13T05:20:12;15.15;;;4.70;;
49730;SDS011;35622;52.008;5.426;2023-07-13T05:22:38;18.10;;;6.25;;
49730;SDS011;35622;52.008;5.426;2023-07-13T05:25:04;13.35;;;4.90;;
49730;SDS011;35622;52.008;5.426;2023-07-13T05:27:31;15.07;;;6.72;;
49730;SDS011;35622;52.008;5.426;2023-07-13T05:29:57;16.60;;;5.32;;
49730;SDS011;35622;52.008;5.426;2023-07-13T05:32:22;18.88;;;6.38;;
49730;SDS011;35622;52.008;5.426;2023-07-13T05:34:48;15.68;;;5.53;;
49730;SDS011;35622;52.008;5.426;2023-07-13T05:37:14;13.98;;;6.05;;
49730;SDS011;35622;52.008;5.426;2023-07-13T05:39:39;20.48;;;6.97;;
49730;SDS011;35622;52.008;5.426;2023-07-13T05:42:05;22.98;;;8.73;;
49730;SDS011;35622;52.008;5.426;2023-07-13T05:44:31;18.42;;;5.43;;
49730;SDS011;35622;52.008;5.426;2023-07-13T05:46:56;19.63;;;6.93;;
49730;SDS011;35622;52.008;5.426;2023-07-13T05:49:22;19.05;;;8.27;;
49730;SDS011;35622;52.008;5.426;2023-07-13T05:51:49;19.63;;;8.05;;
49730;SDS011;35622;52.008;5.426;2023-07-13T05:54:14;18.92;;;8.02;;
49730;SDS011;35622;52.008;5.426;2023-07-13T05:56:40;20.70;;;8.80;;
49730;SDS011;35622;52.008;5.426;2023-07-13T05:59:06;24.35;;;8.80;;
49730;SDS011;35622;52.008;5.426;2023-07-13T06:01:32;18.42;;;9.45;;
49730;SDS011;35622;52.008;5.426;2023-07-13T06:03:58;21.33;;;9.23;;
49730;SDS011;35622;52.008;5.426;2023-07-13T06:06:24;21.98;;;9.82;;
49730;SDS011;35622;52.008;5.426;2023-07-13T06:08:49;26.88;;;10.00;;
49730;SDS011;35622;52.008;5.426;2023-07-13T06:11:19;25.60;;;10.18;;
49730;SDS011;35622;52.008;5.426;2023-07-13T06:13:47;19.33;;;10.10;;
49730;SDS011;35622;52.008;5.426;2023-07-13T06:16:13;19.08;;;9.93;;
49730;SDS011;35622;52.008;5.426;2023-07-13T06:18:39;22.63;;;10.15;;
49730;SDS011;35622;52.008;5.426;2023-07-13T06:21:13;20.35;;;10.05;;
49730;SDS011;35622;52.008;5.426;2023-07-13T06:23:44;20.58;;;10.10;;
49730;SDS011;35622;52.008;5.426;2023-07-13T06:26:12;24.08;;;12.18;;
49730;SDS011;35622;52.008;5.426;2023-07-13T06:28:38;28.27;;;12.68;;
49730;SDS011;35622;52.008;5.426;2023-07-13T06:31:05;27.70;;;12.73;;
49730;SDS011;35622;52.008;5.426;2023-07-13T06:33:32;21.27;;;10.82;;
49730;SDS011;35622;52.008;5.426;2023-07-13T06:35:58;26.83;;;13.10;;
49730;SDS011;35622;52.008;5.426;2023-07-13T06:38:23;23.48;;;12.07;;
49730;SDS011;35622;52.008;5.426;2023-07-13T06:40:49;22.08;;;13.38;;
49730;SDS011;35622;52.008;5.426;2023-07-13T06:43:15;25.48;;;11.93;;
49730;SDS011;35622;52.008;5.426;2023-07-13T06:45:41;20.10;;;10.85;;
49730;SDS011;35622;52.008;5.426;2023-07-13T06:48:11;19.13;;;11.80;;
49730;SDS011;35622;52.008;5.426;2023-07-13T06:50:36;19.00;;;11.60;;
49730;SDS011;35622;52.008;5.426;2023-07-13T06:53:02;18.92;;;11.90;;
49730;SDS011;35622;52.008;5.426;2023-07-13T06:55:28;25.17;;;12.35;;
49730;SDS011;35622;52.008;5.426;2023-07-13T06:57:53;21.70;;;11.20;;
49730;SDS011;35622;52.008;5.426;2023-07-13T07:00:19;24.27;;;14.00;;
49730;SDS011;35622;52.008;5.426;2023-07-13T07:02:44;24.67;;;12.85;;
49730;SDS011;35622;52.008;5.426;2023-07-13T07:05:11;24.40;;;11.93;;
49730;SDS011;35622;52.008;5.426;2023-07-13T07:07:36;23.25;;;11.88;;
49730;SDS011;35622;52.008;5.426;2023-07-13T07:10:02;21.70;;;12.82;;
49730;SDS011;35622;52.008;5.426;2023-07-13T07:12:28;23.42;;;12.35;;
49730;SDS011;35622;52.008;5.426;2023-07-13T07:14:54;23.80;;;12.00;;
49730;SDS011;35622;52.008;5.426;2023-07-13T07:17:19;19.92;;;12.82;;
49730;SDS011;35622;52.008;5.426;2023-07-13T07:19:45;24.27;;;11.20;;
49730;SDS011;35622;52.008;5.426;2023-07-13T07:22:11;24.70;;;11.52;;
49730;SDS011;35622;52.008;5.426;2023-07-13T07:24:37;20.52;;;10.88;;
49730;SDS011;35622;52.008;5.426;2023-07-13T07:27:02;19.13;;;10.85;;
49730;SDS011;35622;52.008;5.426;2023-07-13T07:29:28;19.83;;;12.40;;
49730;SDS011;35622;52.008;5.426;2023-07-13T07:31:54;18.25;;;10.10;;
49730;SDS011;35622;52.008;5.426;2023-07-13T07:34:20;19.98;;;11.68;;
49730;SDS011;35622;52.008;5.426;2023-07-13T07:36:45;18.52;;;10.25;;
49730;SDS011;35622;52.008;5.426;2023-07-13T07:39:11;18.83;;;10.90;;
49730;SDS011;35622;52.008;5.426;2023-07-13T07:41:37;17.48;;;9.43;;
49730;SDS011;35622;52.008;5.426;2023-07-13T07:44:03;19.80;;;11.02;;
49730;SDS011;35622;52.008;5.426;2023-07-13T07:46:29;19.25;;;11.18;;
49730;SDS011;35622;52.008;5.426;2023-07-13T07:48:55;18.08;;;10.18;;
49730;SDS011;35622;52.008;5.426;2023-07-13T07:51:21;16.98;;;10.38;;
49730;SDS011;35622;52.008;5.426;2023-07-13T07:53:47;17.35;;;10.57;;
49730;SDS011;35622;52.008;5.426;2023-07-13T07:56:13;20.60;;;11.10;;
49730;SDS011;35622;52.008;5.426;2023-07-13T07:58:41;18.25;;;10.60;;
49730;SDS011;35622;52.008;5.426;2023-07-13T08:01:07;22.33;;;11.27;;
49730;SDS011;35622;52.008;5.426;2023-07-13T08:03:33;17.63;;;11.50;;
49730;SDS011;35622;52.008;5.426;2023-07-13T08:05:59;18.33;;;10.77;;
49730;SDS011;35622;52.008;5.426;2023-07-13T08:08:25;16.23;;;9.30;;
49730;SDS011;35622;52.008;5.426;2023-07-13T08:10:50;17.23;;;8.40;;
49730;SDS011;35622;52.008;5.426;2023-07-13T08:13:16;14.90;;;8.45;;
49730;SDS011;35622;52.008;5.426;2023-07-13T08:15:42;12.52;;;6.50;;
49730;SDS011;35622;52.008;5.426;2023-07-13T08:18:09;13.55;;;7.05;;
49730;SDS011;35622;52.008;5.426;2023-07-13T08:20:38;13.35;;;6.47;;
49730;SDS011;35622;52.008;5.426;2023-07-13T08:23:04;13.18;;;7.47;;
49730;SDS011;35622;52.008;5.426;2023-07-13T08:25:31;11.95;;;7.05;;
49730;SDS011;35622;52.008;5.426;2023-07-13T08:27:56;12.65;;;7.28;;
49730;SDS011;35622;52.008;5.426;2023-07-13T08:30:22;10.20;;;6.13;;
49730;SDS011;35622;52.008;5.426;2023-07-13T08:32:48;11.18;;;6.22;;
49730;SDS011;35622;52.008;5.426;2023-07-13T08:35:14;11.32;;;4.80;;
49730;SDS011;35622;52.008;5.426;2023-07-13T08:37:41;11.55;;;4.43;;
49730;SDS011;35622;52.008;5.426;2023-07-13T08:40:08;11.55;;;4.18;;
49730;SDS011;35622;52.008;5.426;2023-07-13T08:42:49;9.60;;;4.22;;
49730;SDS011;35622;52.008;5.426;2023-07-13T08:48:10;10.23;;;4.10;;
49730;SDS011;35622;52.008;5.426;2023-07-13T08:50:48;7.75;;;3.53;;
49730;SDS011;35622;52.008;5.426;2023-07-13T08:53:36;8.63;;;3.88;;
49730;SDS011;35622;52.008;5.426;2023-07-13T08:56:09;7.60;;;3.70;;
49730;SDS011;35622;52.008;5.426;2023-07-13T08:58:42;8.55;;;3.92;;
49730;SDS011;35622;52.008;5.426;2023-07-13T09:01:28;6.72;;;3.30;;
49730;SDS011;35622;52.008;5.426;2023-07-13T09:04:11;5.75;;;2.70;;
49730;SDS011;35622;52.008;5.426;2023-07-13T09:09:42;8.98;;;3.40;;
49730;SDS011;35622;52.008;5.426;2023-07-13T09:12:31;5.85;;;3.70;;
49730;SDS011;35622;52.008;5.426;2023-07-13T09:15:44;6.35;;;3.25;;
49730;SDS011;35622;52.008;5.426;2023-07-13T09:18:07;7.28;;;3.63;;
49730;SDS011;35622;52.008;5.426;2023-07-13T09:21:03;7.22;;;2.97;;
49730;SDS011;35622;52.008;5.426;2023-07-13T09:23:35;6.03;;;3.08;;
49730;SDS011;35622;52.008;5.426;2023-07-13T09:26:18;6.85;;;3.00;;
49730;SDS011;35622;52.008;5.426;2023-07-13T09:28:52;6.93;;;2.67;;
49730;SDS011;35622;52.008;5.426;2023-07-13T09:31:31;7.22;;;3.00;;
49730;SDS011;35622;52.008;5.426;2023-07-13T09:34:00;6.47;;;2.90;;
49730;SDS011;35622;52.008;5.426;2023-07-13T09:36:29;5.53;;;3.10;;
49730;SDS011;35622;52.008;5.426;2023-07-13T09:39:04;8.27;;;2.88;;
49730;SDS011;35622;52.008;5.426;2023-07-13T09:44:34;6.97;;;3.20;;
49730;SDS011;35622;52.008;5.426;2023-07-13T09:47:25;7.60;;;2.90;;
49730;SDS011;35622;52.008;5.426;2023-07-13T09:52:23;6.60;;;2.63;;
49730;SDS011;35622;52.008;5.426;2023-07-13T09:54:50;6.72;;;2.75;;
49730;SDS011;35622;52.008;5.426;2023-07-13T09:57:19;9.85;;;3.00;;
49730;SDS011;35622;52.008;5.426;2023-07-13T09:59:49;5.25;;;2.70;;
49730;SDS011;35622;52.008;5.426;2023-07-13T10:04:53;6.45;;;2.58;;
49730;SDS011;35622;52.008;5.426;2023-07-13T10:07:25;4.78;;;2.05;;
49730;SDS011;35622;52.008;5.426;2023-07-13T10:09:54;6.35;;;1.83;;
49730;SDS011;35622;52.008;5.426;2023-07-13T10:12:20;4.25;;;1.80;;
49730;SDS011;35622;52.008;5.426;2023-07-13T10:14:49;5.18;;;1.95;;
49730;SDS011;35622;52.008;5.426;2023-07-13T10:17:19;5.53;;;2.10;;
49730;SDS011;35622;52.008;5.426;2023-07-13T10:19:59;4.38;;;2.03;;
49730;SDS011;35622;52.008;5.426;2023-07-13T10:22:42;4.80;;;2.17;;
49730;SDS011;35622;52.008;5.426;2023-07-13T10:25:16;5.45;;;2.10;;
49730;SDS011;35622;52.008;5.426;2023-07-13T10:27:45;3.90;;;2.00;;
49730;SDS011;35622;52.008;5.426;2023-07-13T10:30:14;5.03;;;2.00;;
49730;SDS011;35622;52.008;5.426;2023-07-13T10:32:48;4.25;;;1.98;;
49730;SDS011;35622;52.008;5.426;2023-07-13T10:35:15;5.45;;;2.40;;
49730;SDS011;35622;52.008;5.426;2023-07-13T10:38:02;5.82;;;2.28;;
49730;SDS011;35622;52.008;5.426;2023-07-13T10:40:36;4.90;;;2.03;;
49730;SDS011;35622;52.008;5.426;2023-07-13T10:43:09;6.03;;;2.40;;
49730;SDS011;35622;52.008;5.426;2023-07-13T10:45:45;5.35;;;2.22;;
49730;SDS011;35622;52.008;5.426;2023-07-13T10:48:16;4.90;;;2.05;;
49730;SDS011;35622;52.008;5.426;2023-07-13T10:50:43;5.78;;;2.20;;
49730;SDS011;35622;52.008;5.426;2023-07-13T10:53:30;4.53;;;1.92;;
49730;SDS011;35622;52.008;5.426;2023-07-13T10:55:59;5.03;;;2.20;;
49730;SDS011;35622;52.008;5.426;2023-07-13T10:58:45;4.50;;;1.83;;
49730;SDS011;35622;52.008;5.426;2023-07-13T11:01:13;6.00;;;2.05;;
49730;SDS011;35622;52.008;5.426;2023-07-13T11:08:38;4.43;;;1.88;;
49730;SDS011;35622;52.008;5.426;2023-07-13T11:23:54;4.90;;;1.90;;
49730;SDS011;35622;52.008;5.426;2023-07-13T11:26:38;4.15;;;1.98;;
49730;SDS011;35622;52.008;5.426;2023-07-13T11:29:20;4.93;;;2.00;;
49730;SDS011;35622;52.008;5.426;2023-07-13T11:31:56;5.85;;;2.17;;
49730;SDS011;35622;52.008;5.426;2023-07-13T11:34:26;5.03;;;2.03;;
49730;SDS011;35622;52.008;5.426;2023-07-13T11:36:55;4.63;;;2.30;;
49730;SDS011;35622;52.008;5.426;2023-07-13T11:39:30;4.65;;;2.20;;
49730;SDS011;35622;52.008;5.426;2023-07-13T11:41:57;5.65;;;2.42;;
49730;SDS011;35622;52.008;5.426;2023-07-13T11:44:27;5.90;;;2.90;;
49730;SDS011;35622;52.008;5.426;2023-07-13T11:46:58;4.72;;;2.78;;
49730;SDS011;35622;52.008;5.426;2023-07-13T11:49:45;6.78;;;2.97;;
49730;SDS011;35622;52.008;5.426;2023-07-13T11:52:15;5.32;;;3.30;;
49730;SDS011;35622;52.008;5.426;2023-07-13T11:54:53;6.00;;;2.80;;
49730;SDS011;35622;52.008;5.426;2023-07-13T11:57:23;7.25;;;3.28;;
49730;SDS011;35622;52.008;5.426;2023-07-13T11:59:59;5.32;;;2.65;;
49730;SDS011;35622;52.008;5.426;2023-07-13T12:02:38;5.03;;;2.60;;
49730;SDS011;35622;52.008;5.426;2023-07-13T12:05:09;4.20;;;2.05;;
49730;SDS011;35622;52.008;5.426;2023-07-13T12:07:38;4.15;;;2.20;;
49730;SDS011;35622;52.008;5.426;2023-07-13T12:10:17;5.68;;;2.47;;
49730;SDS011;35622;52.008;5.426;2023-07-13T12:12:53;5.78;;;2.47;;
49730;SDS011;35622;52.008;5.426;2023-07-13T12:15:21;4.60;;;2.30;;
49730;SDS011;35622;52.008;5.426;2023-07-13T12:17:48;5.25;;;2.65;;
49730;SDS011;35622;52.008;5.426;2023-07-13T12:20:21;4.05;;;2.20;;
49730;SDS011;35622;52.008;5.426;2023-07-13T12:22:50;6.28;;;2.90;;
49730;SDS011;35622;52.008;5.426;2023-07-13T12:25:16;3.92;;;2.45;;
49730;SDS011;35622;52.008;5.426;2023-07-13T12:27:46;3.80;;;2.40;;
49730;SDS011;35622;52.008;5.426;2023-07-13T12:30:31;4.95;;;2.38;;
49730;SDS011;35622;52.008;5.426;2023-07-13T12:35:38;4.55;;;2.50;;
49730;SDS011;35622;52.008;5.426;2023-07-13T12:38:08;4.70;;;2.30;;
49730;SDS011;35622;52.008;5.426;2023-07-13T12:40:36;4.90;;;2.38;;
49730;SDS011;35622;52.008;5.426;2023-07-13T12:43:02;5.45;;;2.83;;
49730;SDS011;35622;52.008;5.426;2023-07-13T12:45:31;3.08;;;2.17;;
49730;SDS011;35622;52.008;5.426;2023-07-13T12:48:02;4.85;;;2.53;;
49730;SDS011;35622;52.008;5.426;2023-07-13T12:50:36;4.63;;;2.40;;
49730;SDS011;35622;52.008;5.426;2023-07-13T12:53:06;4.28;;;2.13;;
49730;SDS011;35622;52.008;5.426;2023-07-13T12:55:43;4.25;;;2.40;;
49730;SDS011;35622;52.008;5.426;2023-07-13T12:58:36;4.25;;;2.35;;
49730;SDS011;35622;52.008;5.426;2023-07-13T13:01:10;3.63;;;2.45;;
49730;SDS011;35622;52.008;5.426;2023-07-13T13:03:39;3.85;;;2.40;;
49730;SDS011;35622;52.008;5.426;2023-07-13T13:08:44;3.28;;;1.73;;
49730;SDS011;35622;52.008;5.426;2023-07-13T13:11:11;2.53;;;2.00;;
49730;SDS011;35622;52.008;5.426;2023-07-13T13:13:39;3.92;;;2.25;;
49730;SDS011;35622;52.008;5.426;2023-07-13T13:16:28;3.90;;;2.30;;
49730;SDS011;35622;52.008;5.426;2023-07-13T13:19:10;4.60;;;2.10;;
49730;SDS011;35622;52.008;5.426;2023-07-13T13:21:43;3.95;;;1.92;;
49730;SDS011;35622;52.008;5.426;2023-07-13T13:24:11;5.72;;;1.80;;
49730;SDS011;35622;52.008;5.426;2023-07-13T13:26:42;5.25;;;2.20;;
49730;SDS011;35622;52.008;5.426;2023-07-13T13:29:14;4.55;;;1.95;;
49730;SDS011;35622;52.008;5.426;2023-07-13T13:31:49;4.07;;;2.05;;
49730;SDS011;35622;52.008;5.426;2023-07-13T13:34:15;4.78;;;2.15;;
49730;SDS011;35622;52.008;5.426;2023-07-13T13:36:42;6.57;;;2.22;;
49730;SDS011;35622;52.008;5.426;2023-07-13T13:39:27;3.17;;;1.77;;
49730;SDS011;35622;52.008;5.426;2023-07-13T13:42:00;3.95;;;2.35;;
49730;SDS011;35622;52.008;5.426;2023-07-13T13:44:25;4.53;;;2.28;;
49730;SDS011;35622;52.008;5.426;2023-07-13T13:46:52;3.70;;;1.92;;
49730;SDS011;35622;52.008;5.426;2023-07-13T13:49:24;3.97;;;2.03;;
49730;SDS011;35622;52.008;5.426;2023-07-13T13:51:51;3.63;;;1.90;;
49730;SDS011;35622;52.008;5.426;2023-07-13T13:54:18;4.63;;;1.80;;
49730;SDS011;35622;52.008;5.426;2023-07-13T13:56:47;5.65;;;2.05;;
49730;SDS011;35622;52.008;5.426;2023-07-13T13:59:14;3.40;;;1.80;;
49730;SDS011;35622;52.008;5.426;2023-07-13T14:01:40;5.00;;;2.47;;
49730;SDS011;35622;52.008;5.426;2023-07-13T14:04:09;4.43;;;2.33;;
49730;SDS011;35622;52.008;5.426;2023-07-13T14:06:43;7.60;;;2.38;;
49730;SDS011;35622;52.008;5.426;2023-07-13T14:09:13;3.92;;;2.25;;
49730;SDS011;35622;52.008;5.426;2023-07-13T14:11:40;3.90;;;2.35;;
49730;SDS011;35622;52.008;5.426;2023-07-13T14:14:08;3.53;;;2.13;;
49730;SDS011;35622;52.008;5.426;2023-07-13T14:17:01;3.50;;;2.20;;
49730;SDS011;35622;52.008;5.426;2023-07-13T14:19:26;3.38;;;1.92;;
49730;SDS011;35622;52.008;5.426;2023-07-13T14:21:52;3.53;;;2.35;;
49730;SDS011;35622;52.008;5.426;2023-07-13T14:24:18;4.47;;;1.90;;
49730;SDS011;35622;52.008;5.426;2023-07-13T14:26:45;4.40;;;2.00;;
49730;SDS011;35622;52.008;5.426;2023-07-13T14:29:12;5.75;;;2.08;;
49730;SDS011;35622;52.008;5.426;2023-07-13T14:31:40;4.05;;;2.10;;
49730;SDS011;35622;52.008;5.426;2023-07-13T14:34:07;3.40;;;1.70;;
49730;SDS011;35622;52.008;5.426;2023-07-13T14:36:39;4.00;;;1.88;;
49730;SDS011;35622;52.008;5.426;2023-07-13T14:39:12;4.82;;;2.28;;
49730;SDS011;35622;52.008;5.426;2023-07-13T14:41:43;3.63;;;1.85;;
49730;SDS011;35622;52.008;5.426;2023-07-13T14:44:13;4.75;;;1.73;;
49730;SDS011;35622;52.008;5.426;2023-07-13T14:46:40;3.42;;;2.00;;
49730;SDS011;35622;52.008;5.426;2023-07-13T14:51:48;6.70;;;2.25;;
49730;SDS011;35622;52.008;5.426;2023-07-13T14:54:14;3.28;;;1.50;;
49730;SDS011;35622;52.008;5.426;2023-07-13T14:56:39;4.93;;;1.90;;
49730;SDS011;35622;52.008;5.426;2023-07-13T14:59:05;3.55;;;1.85;;
49730;SDS011;35622;52.008;5.426;2023-07-13T15:01:32;2.95;;;1.67;;
49730;SDS011;35622;52.008;5.426;2023-07-13T15:04:01;3.28;;;1.88;;
49730;SDS011;35622;52.008;5.426;2023-07-13T15:06:28;2.40;;;1.30;;
49730;SDS011;35622;52.008;5.426;2023-07-13T15:08:54;6.88;;;1.75;;
49730;SDS011;35622;52.008;5.426;2023-07-13T15:11:20;3.13;;;1.52;;
49730;SDS011;35622;52.008;5.426;2023-07-13T15:13:46;3.60;;;1.80;;
49730;SDS011;35622;52.008;5.426;2023-07-13T15:16:15;4.40;;;1.50;;
49730;SDS011;35622;52.008;5.426;2023-07-13T15:18:49;3.55;;;1.67;;
49730;SDS011;35622;52.008;5.426;2023-07-13T15:21:20;3.55;;;1.52;;
49730;SDS011;35622;52.008;5.426;2023-07-13T15:23:47;4.25;;;1.67;;
49730;SDS011;35622;52.008;5.426;2023-07-13T15:26:16;3.38;;;1.55;;
49730;SDS011;35622;52.008;5.426;2023-07-13T15:28:43;2.95;;;1.70;;
49730;SDS011;35622;52.008;5.426;2023-07-13T15:31:24;3.25;;;1.77;;